1NY2 weather

Oishei Childrens Hospital Heliport
Buffalo, New York, United States

Public forecast

Using degrees Fahrenheit for public forecast. Weather courtesy of forecast.io.

Closest aviation weather report (METAR) to Oishei Childrens Hospital Heliport

Closest report is Buffalo Niagara International Airport, 6.4 nm (11.9 km) ENE. Retrieved 2019/10/17 11:54 UTC (20 minutes ago):

KBUF 171154Z 30015G26KT 10SM -RA BKN020 OVC025 07/04 A2950 RMK AO2 PK WND 30035/1136 RAB50 SLP993 P0000 60001 70108 T00720044 10072 20061 53019

Closest aviation forecast (TAF) to Oishei Childrens Hospital Heliport

Closest forecast is Buffalo Niagara International Airport, 6.4 nm (11.9 km) ENE. Retrieved 2019/10/17 12:36 UTC (0 seconds ago):

TAF KBUF 171135Z 1712/1812 29016G26KT 6SM -SHRA BR OVC015 FM171800 30015G21KT P6SM VCSH OVC015 FM172000 30017G25KT P6SM VCSH OVC020 FM180200 30012KT P6SM OVC020